Time;durP1;ratioP1;P1;durP2;ratioP2;P2;SDS_P1;SDS_P2;PMS_P1;PMS_P2;Temp;Humidity;BMP_temperature;BMP_pressure;BME280_temperature;BME280_humidity;BME280_pressure;Samples;Min_cycle;Max_cycle;Signal;HPM_P1;HPM_P2
2023/08/02 00:02:16;;;;;;;3.75;1.10;;;;;;;-147.32;100.00;65238.50;10426941;28;20119;-69
2023/08/02 00:07:17;;;;;;;2.63;1.38;;;;;;;-147.32;100.00;65238.50;10427625;28;20061;-68
2023/08/02 00:12:20;;;;;;;2.63;1.08;;;;;;;-147.32;100.00;65238.50;10404960;28;20119;-68
2023/08/02 00:17:20;;;;;;;2.65;1.08;;;;;;;-147.32;100.00;65238.50;10410987;28;20044;-66
2023/08/02 00:22:22;;;;;;;3.08;0.95;;;;;;;-147.32;100.00;65238.50;10391359;28;20052;-68
2023/08/02 00:27:23;;;;;;;4.30;1.00;;;;;;;-147.32;100.00;65238.50;10414208;28;20037;-68
2023/08/02 00:32:23;;;;;;;1.35;0.80;;;;;;;-147.32;100.00;65238.50;10394097;28;20045;-67
2023/08/02 00:37:25;;;;;;;2.55;1.05;;;;;;;-147.32;100.00;65238.50;10428621;28;20033;-67
2023/08/02 00:42:26;;;;;;;2.97;1.45;;;;;;;-147.32;100.00;65238.50;10395668;28;20099;-68
2023/08/02 00:47:26;;;;;;;2.53;0.93;;;;;;;-147.32;100.00;65238.50;10420995;28;20817;-67
2023/08/02 00:52:27;;;;;;;5.68;1.52;;;;;;;-147.32;100.00;65238.50;10413099;28;20440;-67
2023/08/02 00:57:28;;;;;;;3.17;1.80;;;;;;;-147.32;100.00;65238.50;10406172;28;20141;-68
2023/08/02 01:02:28;;;;;;;7.18;2.70;;;;;;;-147.32;100.00;65238.50;10405892;28;20033;-67
2023/08/02 01:07:54;;;;;;;8.15;2.25;;;;;;;-147.32;100.00;65238.50;10369886;28;20068;-68
2023/08/02 01:12:54;;;;;;;8.40;2.92;;;;;;;-147.32;100.00;65238.50;10417150;28;20034;-67
2023/08/02 01:17:55;;;;;;;5.07;2.90;;;;;;;-147.32;100.00;65238.50;10422291;28;20038;-68
2023/08/02 01:22:56;;;;;;;6.32;2.92;;;;;;;-147.32;100.00;65238.50;10398608;28;20068;-68
2023/08/02 01:27:59;;;;;;;10.68;3.70;;;;;;;-147.32;100.00;65238.50;10404036;28;20435;-68
2023/08/02 01:32:59;;;;;;;4.95;3.65;;;;;;;-147.32;100.00;65238.50;10385121;28;20068;-67
2023/08/02 01:38:00;;;;;;;10.27;4.68;;;;;;;-147.32;100.00;65238.50;10391553;28;20033;-68
2023/08/02 01:43:00;;;;;;;7.40;3.97;;;;;;;-147.32;100.00;65238.50;10389397;28;20072;-68
2023/08/02 01:48:01;;;;;;;4.93;3.50;;;;;;;-147.32;100.00;65238.50;10409572;28;20042;-68
2023/08/02 01:53:01;;;;;;;8.00;4.60;;;;;;;-147.32;100.00;65238.50;10366765;28;20848;-67
2023/08/02 01:58:02;;;;;;;9.52;4.53;;;;;;;-147.32;100.00;65238.50;10424313;28;20048;-68
2023/08/02 02:03:03;;;;;;;10.82;4.85;;;;;;;-147.32;100.00;65238.50;10415498;28;20125;-68
2023/08/02 02:08:03;;;;;;;12.20;5.38;;;;;;;-147.32;100.00;65238.50;10476857;28;20043;-68
2023/08/02 02:13:04;;;;;;;8.52;4.47;;;;;;;-147.32;100.00;65238.50;10453813;28;20040;-69
2023/08/02 02:18:04;;;;;;;10.57;4.07;;;;;;;-147.32;100.00;65238.50;10458222;28;20043;-67
2023/08/02 02:23:05;;;;;;;12.52;5.05;;;;;;;-147.32;100.00;65238.50;10441556;28;20521;-67
2023/08/02 02:28:05;;;;;;;8.40;4.40;;;;;;;-147.32;100.00;65238.50;10443559;28;20040;-67
2023/08/02 02:33:06;;;;;;;8.13;4.55;;;;;;;-147.32;100.00;65238.50;10421707;28;20053;-67
2023/08/02 02:38:06;;;;;;;9.70;4.57;;;;;;;-147.32;100.00;65238.50;10445620;28;20040;-68
2023/08/02 02:43:07;;;;;;;11.68;4.35;;;;;;;-147.32;100.00;65238.50;10443245;28;20044;-67
2023/08/02 02:48:07;;;;;;;9.27;4.20;;;;;;;-147.32;100.00;65238.50;10444549;28;20037;-67
2023/08/02 02:53:08;;;;;;;6.28;4.35;;;;;;;-147.32;100.00;65238.50;10437679;28;20044;-67
2023/08/02 02:58:09;;;;;;;7.47;3.83;;;;;;;-147.32;100.00;65238.50;10419017;28;20473;-67
2023/08/02 03:03:16;;;;;;;11.43;3.97;;;;;;;-147.32;100.00;65238.50;10445121;28;20077;-67
2023/08/02 03:08:17;;;;;;;9.57;3.97;;;;;;;-147.32;100.00;65238.50;10448649;28;20042;-68
2023/08/02 03:13:17;;;;;;;7.93;4.15;;;;;;;-147.32;100.00;65238.50;10436276;28;20045;-68
2023/08/02 03:18:18;;;;;;;7.25;4.07;;;;;;;-147.32;100.00;65238.50;10435807;28;20040;-68
2023/08/02 03:23:18;;;;;;;15.65;4.22;;;;;;;-147.32;100.00;65238.50;10433827;28;20042;-68
2023/08/02 03:28:19;;;;;;;10.82;4.28;;;;;;;-147.32;100.00;65238.50;10471293;28;20036;-68
2023/08/02 03:33:19;;;;;;;17.25;5.97;;;;;;;-147.32;100.00;65238.50;10419396;28;20052;-67
2023/08/02 03:38:20;;;;;;;11.60;5.25;;;;;;;-147.32;100.00;65238.50;10433412;28;20048;-68
2023/08/02 03:43:20;;;;;;;10.35;4.25;;;;;;;-147.32;100.00;65238.50;10473623;28;20051;-67
2023/08/02 03:48:21;;;;;;;16.00;5.32;;;;;;;-147.32;100.00;65238.50;10442114;28;20520;-67
2023/08/02 03:53:22;;;;;;;15.40;4.57;;;;;;;-147.32;100.00;65238.50;10430993;28;20048;-68
2023/08/02 03:58:23;;;;;;;8.15;4.78;;;;;;;-147.32;100.00;65238.50;10421354;28;20488;-68
2023/08/02 04:03:23;;;;;;;15.45;4.80;;;;;;;-147.32;100.00;65238.50;10452361;28;20128;-68
2023/08/02 04:08:24;;;;;;;13.45;5.78;;;;;;;-147.32;100.00;65238.50;10425742;28;20385;-68
2023/08/02 04:13:24;;;;;;;15.48;7.20;;;;;;;-147.32;100.00;65238.50;10449489;28;20120;-68
2023/08/02 04:18:25;;;;;;;15.88;5.95;;;;;;;-147.32;100.00;65238.50;10396678;28;20055;-68
2023/08/02 04:23:26;;;;;;;11.05;6.25;;;;;;;-147.32;100.00;65238.50;10441794;28;20091;-68
2023/08/02 04:28:27;;;;;;;13.25;6.03;;;;;;;-147.32;100.00;65238.50;10415173;28;20409;-67
2023/08/02 04:33:28;;;;;;;20.73;6.07;;;;;;;-147.32;100.00;65238.50;10420221;28;20051;-68
2023/08/02 04:38:29;;;;;;;16.60;5.50;;;;;;;-147.32;100.00;65238.50;10439162;28;20032;-68
2023/08/02 04:43:30;;;;;;;11.63;4.90;;;;;;;-147.32;100.00;65238.50;10452718;28;20068;-68
2023/08/02 04:48:31;;;;;;;17.33;6.10;;;;;;;-147.32;100.00;65238.50;10463988;28;20425;-68
2023/08/02 04:53:31;;;;;;;16.00;6.43;;;;;;;-147.32;100.00;65238.50;10442575;28;20579;-68
2023/08/02 04:58:32;;;;;;;11.55;4.90;;;;;;;-147.32;100.00;65238.50;10422902;28;20052;-67
2023/08/02 05:03:33;;;;;;;14.00;5.60;;;;;;;-147.32;100.00;65238.50;10408534;28;20048;-68
2023/08/02 05:08:35;;;;;;;12.80;5.45;;;;;;;-147.32;100.00;65238.50;10455153;28;20044;-68
2023/08/02 05:13:35;;;;;;;18.67;6.35;;;;;;;-147.32;100.00;65238.50;10453706;28;20041;-68
2023/08/02 05:18:36;;;;;;;18.88;5.07;;;;;;;-147.32;100.00;65238.50;10450125;28;20056;-68
2023/08/02 05:23:36;;;;;;;13.85;4.97;;;;;;;-147.32;100.00;65238.50;10475670;28;20036;-68
2023/08/02 05:28:38;;;;;;;12.55;5.57;;;;;;;-147.32;100.00;65238.50;10460764;28;20029;-68
2023/08/02 05:33:39;;;;;;;16.13;6.78;;;;;;;-147.32;100.00;65238.50;10445319;28;20050;-67
2023/08/02 05:38:39;;;;;;;13.20;5.65;;;;;;;-147.32;100.00;65238.50;10451569;28;20463;-67
2023/08/02 05:43:44;;;;;;;11.35;4.97;;;;;;;-147.32;100.00;65238.50;10467822;28;20032;-67
2023/08/02 05:48:45;;;;;;;10.00;5.15;;;;;;;-147.32;100.00;65238.50;10443487;28;20037;-68
2023/08/02 05:53:45;;;;;;;10.65;5.20;;;;;;;-147.32;100.00;65238.50;10452496;28;20090;-67
2023/08/02 05:58:45;;;;;;;13.57;5.72;;;;;;;-147.32;100.00;65238.50;10479747;28;20044;-68
2023/08/02 06:03:46;;;;;;;13.65;5.13;;;;;;;-147.32;100.00;65238.50;10439991;28;20040;-68
2023/08/02 06:08:47;;;;;;;12.85;5.13;;;;;;;-147.32;100.00;65238.50;10444610;28;20040;-68
2023/08/02 06:13:48;;;;;;;11.02;4.97;;;;;;;-147.32;100.00;65238.50;10478402;28;20468;-68
2023/08/02 06:18:49;;;;;;;8.90;5.00;;;;;;;-147.32;100.00;65238.50;10447176;28;20049;-68
2023/08/02 06:23:50;;;;;;;9.10;4.50;;;;;;;-147.32;100.00;65238.50;10437238;28;20037;-67
2023/08/02 06:28:50;;;;;;;8.25;4.40;;;;;;;-147.32;100.00;65238.50;10446277;28;20155;-67
2023/08/02 06:33:51;;;;;;;10.55;4.32;;;;;;;-147.32;100.00;65238.50;10445103;28;20055;-68
2023/08/02 06:38:52;;;;;;;8.75;3.80;;;;;;;-147.32;100.00;65238.50;10452434;28;20112;-67
2023/08/02 06:43:52;;;;;;;9.18;4.47;;;;;;;-147.32;100.00;65238.50;10440249;28;20045;-67
2023/08/02 06:48:53;;;;;;;8.15;4.63;;;;;;;-147.32;100.00;65238.50;10467253;28;20069;-68
2023/08/02 06:53:57;;;;;;;7.70;3.85;;;;;;;-147.32;100.00;65238.50;10462658;28;20075;-67
2023/08/02 06:58:58;;;;;;;9.05;3.80;;;;;;;-147.32;100.00;65238.50;10429700;28;20040;-67
2023/08/02 07:03:58;;;;;;;9.00;3.58;;;;;;;-147.32;100.00;65238.50;10466593;28;20038;-67
2023/08/02 07:08:59;;;;;;;5.97;3.22;;;;;;;-147.32;100.00;65238.50;10456238;28;20036;-67
2023/08/02 07:13:59;;;;;;;7.40;3.38;;;;;;;-147.32;100.00;65238.50;10452912;28;20032;-68
2023/08/02 07:19:02;;;;;;;8.35;4.05;;;;;;;-147.32;100.00;65238.50;10465635;28;20041;-67
2023/08/02 07:24:03;;;;;;;8.73;3.50;;;;;;;-147.32;100.00;65238.50;10460364;28;20037;-67
2023/08/02 07:29:03;;;;;;;7.57;3.78;;;;;;;-147.32;100.00;65238.50;10441250;28;20038;-68
2023/08/02 07:34:04;;;;;;;12.25;4.72;;;;;;;-147.32;100.00;65238.50;10460024;28;20037;-68
2023/08/02 07:39:04;;;;;;;10.63;3.97;;;;;;;-147.32;100.00;65238.50;10439268;28;20037;-66
2023/08/02 07:44:05;;;;;;;7.32;2.85;;;;;;;-147.32;100.00;65238.50;10448492;28;20033;-67
2023/08/02 07:49:05;;;;;;;6.55;2.40;;;;;;;-147.32;100.00;65238.50;10429268;28;20052;-68
2023/08/02 07:54:06;;;;;;;5.60;2.88;;;;;;;-147.32;100.00;65238.50;10457456;28;20160;-69
2023/08/02 07:59:06;;;;;;;8.27;3.17;;;;;;;-147.32;100.00;65238.50;10457895;28;20033;-69
2023/08/02 08:04:06;;;;;;;9.40;3.22;;;;;;;-147.32;100.00;65238.50;10416540;28;20409;-68
2023/08/02 08:09:07;;;;;;;9.43;2.70;;;;;;;-147.32;100.00;65238.50;10459551;28;20039;-68
2023/08/02 08:14:07;;;;;;;17.48;3.80;;;;;;;-147.32;100.00;65238.50;10472830;28;20037;-67
2023/08/02 08:19:08;;;;;;;6.78;2.70;;;;;;;-147.32;100.00;65238.50;10428072;28;20043;-68
2023/08/02 08:24:10;;;;;;;7.72;2.95;;;;;;;-147.32;100.00;65238.50;10473073;28;20036;-67
2023/08/02 08:29:10;;;;;;;9.50;3.38;;;;;;;-147.32;100.00;65238.50;10450681;28;20037;-67
2023/08/02 08:34:13;;;;;;;8.68;3.42;;;;;;;-147.32;100.00;65238.50;10447733;28;20045;-67
2023/08/02 08:39:13;;;;;;;11.60;6.57;;;;;;;-147.32;100.00;65238.50;10453097;28;20048;-67
2023/08/02 08:44:14;;;;;;;12.18;4.35;;;;;;;-147.32;100.00;65238.50;10457587;28;20032;-67
2023/08/02 08:49:14;;;;;;;8.10;3.58;;;;;;;-147.32;100.00;65238.50;10468729;28;20041;-74
2023/08/02 08:54:23;;;;;;;7.45;4.03;;;;;;;-147.32;100.00;65238.50;10427196;28;20041;-76
2023/08/02 08:59:25;;;;;;;9.50;4.25;;;;;;;-147.32;100.00;65238.50;10398248;28;20101;-77
2023/08/02 09:04:26;;;;;;;12.30;5.70;;;;;;;-147.32;100.00;65238.50;10416607;28;20068;-76
2023/08/02 09:09:26;;;;;;;9.98;5.38;;;;;;;-147.32;100.00;65238.50;10416876;28;20033;-76
2023/08/02 09:14:27;;;;;;;10.05;5.07;;;;;;;-147.32;100.00;65238.50;10416558;28;20048;-78
2023/08/02 09:19:29;;;;;;;10.13;5.25;;;;;;;-147.32;100.00;65238.50;10420160;28;20048;-76
2023/08/02 09:24:34;;;;;;;11.20;4.68;;;;;;;-147.32;100.00;65238.50;10430179;28;20475;-78
2023/08/02 09:29:48;;;;;;;9.57;4.47;;;;;;;-147.32;100.00;65238.50;10413561;28;20049;-76
2023/08/02 09:34:50;;;;;;;9.73;4.72;;;;;;;-147.32;100.00;65238.50;10431701;28;20423;-77
2023/08/02 09:39:50;;;;;;;11.60;5.60;;;;;;;-147.32;100.00;65238.50;10407300;28;20573;-77
2023/08/02 09:44:58;;;;;;;8.80;4.68;;;;;;;-147.32;100.00;65238.50;10412662;28;20556;-76
2023/08/02 09:50:09;;;;;;;8.73;4.35;;;;;;;-147.32;100.00;65238.50;10428990;28;20071;-75
2023/08/02 09:55:12;;;;;;;10.52;5.25;;;;;;;-147.32;100.00;65238.50;10431351;28;20030;-76
2023/08/02 10:00:13;;;;;;;13.70;5.28;;;;;;;-147.32;100.00;65238.50;10441160;28;20132;-75
2023/08/02 10:05:14;;;;;;;12.15;4.82;;;;;;;-147.32;100.00;65238.50;10442939;28;20040;-75
2023/08/02 10:10:18;;;;;;;8.98;4.63;;;;;;;-147.32;100.00;65238.50;10442049;28;20099;-74
2023/08/02 10:15:19;;;;;;;11.15;4.93;;;;;;;-147.32;100.00;65238.50;10423896;28;20045;-74
2023/08/02 10:20:19;;;;;;;6.78;3.85;;;;;;;-147.32;100.00;65238.50;10423891;28;20072;-71
2023/08/02 10:25:20;;;;;;;6.63;4.57;;;;;;;-147.32;100.00;65238.50;10435984;28;20040;-74
2023/08/02 10:30:21;;;;;;;7.32;4.22;;;;;;;-147.32;100.00;65238.50;10423788;28;20033;-74
2023/08/02 10:35:53;;;;;;;8.65;4.30;;;;;;;-147.32;100.00;65238.50;10392727;28;20066;-75
2023/08/02 10:41:01;;;;;;;8.27;4.40;;;;;;;-147.32;100.00;65238.50;10450046;28;20266;-71
2023/08/02 10:46:18;;;;;;;7.90;4.63;;;;;;;-147.32;100.00;65238.50;10429844;28;20049;-73
2023/08/02 10:51:32;;;;;;;5.68;3.72;;;;;;;-147.32;100.00;65238.50;10411617;28;20037;-74
2023/08/02 10:56:33;;;;;;;7.53;3.72;;;;;;;-147.32;100.00;65238.50;10459991;28;20036;-75
2023/08/02 11:01:33;;;;;;;8.95;4.05;;;;;;;-147.32;100.00;65238.50;10460408;28;20063;-74
2023/08/02 11:06:34;;;;;;;9.73;3.70;;;;;;;-147.32;100.00;65238.50;10422358;28;20037;-75
2023/08/02 11:11:36;;;;;;;4.35;3.03;;;;;;;-147.32;100.00;65238.50;10368056;28;20147;-75
2023/08/02 11:16:41;;;;;;;4.47;2.50;;;;;;;-147.32;100.00;65238.50;10414419;28;20139;-77
2023/08/02 11:21:51;;;;;;;5.43;2.78;;;;;;;-147.32;100.00;65238.50;10402095;28;20052;-77
2023/08/02 11:26:58;;;;;;;4.25;2.63;;;;;;;-147.32;100.00;65238.50;10362444;28;20091;-76
2023/08/02 11:32:02;;;;;;;3.95;1.90;;;;;;;-147.32;100.00;65238.50;10361567;28;20128;-75
2023/08/02 11:37:02;;;;;;;3.15;2.20;;;;;;;-147.32;100.00;65238.50;10409228;28;20043;-74
2023/08/02 11:42:03;;;;;;;4.20;2.00;;;;;;;-147.32;100.00;65238.50;10457021;28;20052;-74
2023/08/02 11:47:04;;;;;;;3.13;1.63;;;;;;;-147.32;100.00;65238.50;10419889;28;20044;-73
2023/08/02 11:52:05;;;;;;;3.22;2.17;;;;;;;-147.32;100.00;65238.50;10432966;28;20063;-75
2023/08/02 11:57:06;;;;;;;3.42;1.85;;;;;;;-147.32;100.00;65238.50;10409252;28;20578;-75
2023/08/02 12:02:30;;;;;;;1.13;0.73;;;;;;;-147.32;100.00;65238.50;10437521;28;20044;-73
2023/08/02 12:07:32;;;;;;;1.83;0.80;;;;;;;-147.32;100.00;65238.50;10436027;28;20045;-74
2023/08/02 12:12:33;;;;;;;2.15;0.95;;;;;;;-147.32;100.00;65238.50;10402547;28;20037;-74
2023/08/02 12:17:34;;;;;;;1.70;0.90;;;;;;;-147.32;100.00;65238.50;10412067;28;20037;-74
2023/08/02 12:22:47;;;;;;;2.08;0.70;;;;;;;-147.32;100.00;65238.50;10441048;28;20037;-74
2023/08/02 12:28:04;;;;;;;2.40;1.00;;;;;;;-147.32;100.00;65238.50;10436031;28;20037;-74
2023/08/02 12:33:04;;;;;;;2.40;0.77;;;;;;;-147.32;100.00;65238.50;10442938;28;20063;-73
2023/08/02 12:38:05;;;;;;;0.90;0.60;;;;;;;-147.32;100.00;65238.50;10444940;28;20036;-73
2023/08/02 12:43:05;;;;;;;1.50;0.73;;;;;;;-147.32;100.00;65238.50;10459537;28;20037;-72
2023/08/02 12:48:06;;;;;;;1.63;0.70;;;;;;;-147.32;100.00;65238.50;10437346;28;20033;-73
2023/08/02 12:53:06;;;;;;;1.20;0.70;;;;;;;-147.32;100.00;65238.50;10452102;28;20356;-74
2023/08/02 12:58:07;;;;;;;1.27;0.85;;;;;;;-147.32;100.00;65238.50;10452219;28;20036;-72
2023/08/02 13:03:07;;;;;;;2.08;1.30;;;;;;;-147.32;100.00;65238.50;10454181;28;20036;-72
2023/08/02 13:08:08;;;;;;;2.58;1.70;;;;;;;-147.32;100.00;65238.50;10473056;28;20040;-72
2023/08/02 13:13:09;;;;;;;1.63;0.93;;;;;;;-147.32;100.00;65238.50;10472916;28;20062;-72
2023/08/02 13:18:09;;;;;;;2.58;1.00;;;;;;;-147.32;100.00;65238.50;10403664;28;20055;-72
2023/08/02 13:23:10;;;;;;;1.33;1.15;;;;;;;-147.32;100.00;65238.50;10436090;28;20041;-73
2023/08/02 13:28:10;;;;;;;1.98;1.02;;;;;;;-147.32;100.00;65238.50;10419237;28;20025;-72
2023/08/02 13:33:12;;;;;;;3.47;1.38;;;;;;;-147.32;100.00;65238.50;10451266;28;20075;-73
2023/08/02 13:38:13;;;;;;;1.25;1.10;;;;;;;-147.32;100.00;65238.50;10444227;28;20088;-72
2023/08/02 13:43:13;;;;;;;1.10;1.00;;;;;;;-147.32;100.00;65238.50;10444351;28;20037;-72
2023/08/02 13:48:14;;;;;;;1.52;1.30;;;;;;;-147.32;100.00;65238.50;10447182;28;20069;-72
2023/08/02 13:53:14;;;;;;;1.40;1.00;;;;;;;-147.32;100.00;65238.50;10444737;28;20041;-72
2023/08/02 13:58:15;;;;;;;1.70;1.40;;;;;;;-147.32;100.00;65238.50;10416387;28;20056;-73
2023/08/02 14:03:15;;;;;;;1.60;1.45;;;;;;;-147.32;100.00;65238.50;10456579;28;20061;-72
2023/08/02 14:08:16;;;;;;;3.42;1.90;;;;;;;-147.32;100.00;65238.50;10439948;28;20049;-72
2023/08/02 14:13:16;;;;;;;1.77;1.50;;;;;;;-147.32;100.00;65238.50;10439088;28;20037;-72
2023/08/02 14:18:17;;;;;;;2.45;1.75;;;;;;;-147.32;100.00;65238.50;10445958;28;20037;-71
2023/08/02 14:23:17;;;;;;;2.20;2.00;;;;;;;-147.32;100.00;65238.50;10428619;28;20044;-73
2023/08/02 14:28:18;;;;;;;5.45;3.33;;;;;;;-147.32;100.00;65238.50;10462498;28;20032;-79
2023/08/02 14:33:18;;;;;;;7.13;4.35;;;;;;;-147.32;100.00;65238.50;10425516;28;20429;-78
2023/08/02 14:38:19;;;;;;;9.30;5.28;;;;;;;-147.32;100.00;65238.50;10442487;28;20033;-82
2023/08/02 14:43:19;;;;;;;4.47;2.63;;;;;;;-147.32;100.00;65238.50;10442346;28;20036;-76
2023/08/02 14:48:20;;;;;;;2.45;1.45;;;;;;;-147.32;100.00;65238.50;10477466;28;20032;-73
2023/08/02 14:53:20;;;;;;;5.22;0.98;;;;;;;-147.32;100.00;65238.50;10437858;28;20072;-72
2023/08/02 14:58:21;;;;;;;0.80;0.57;;;;;;;-147.32;100.00;65238.50;10431996;28;20029;-73
2023/08/02 15:03:21;;;;;;;1.30;0.60;;;;;;;-147.32;100.00;65238.50;10442706;28;20048;-72
2023/08/02 15:08:22;;;;;;;1.10;0.50;;;;;;;-147.32;100.00;65238.50;10418688;28;20097;-71
2023/08/02 15:13:22;;;;;;;0.68;0.45;;;;;;;-147.32;100.00;65238.50;10462205;28;20049;-73
2023/08/02 15:18:23;;;;;;;1.95;0.60;;;;;;;-147.32;100.00;65238.50;10424947;28;20041;-71
2023/08/02 15:23:23;;;;;;;1.80;0.50;;;;;;;-147.32;100.00;65238.50;10417441;28;20049;-72
2023/08/02 15:28:24;;;;;;;0.90;0.70;;;;;;;-147.32;100.00;65238.50;10459780;28;20033;-72
2023/08/02 15:33:24;;;;;;;1.10;0.90;;;;;;;-147.32;100.00;65238.50;10416030;28;20440;-70
2023/08/02 15:38:25;;;;;;;2.17;1.08;;;;;;;-147.32;100.00;65238.50;10438026;28;20087;-71
2023/08/02 15:43:25;;;;;;;2.20;0.90;;;;;;;-147.32;100.00;65238.50;10431411;28;20115;-71
2023/08/02 15:48:26;;;;;;;4.22;1.10;;;;;;;-147.32;100.00;65238.50;10454297;28;20044;-71
2023/08/02 15:53:26;;;;;;;1.67;0.88;;;;;;;-147.32;100.00;65238.50;10414011;28;20064;-72
2023/08/02 15:58:27;;;;;;;2.83;0.70;;;;;;;-147.32;100.00;65238.50;10436823;28;20540;-71
2023/08/02 16:03:27;;;;;;;4.65;0.50;;;;;;;-147.32;100.00;65238.50;10414468;28;20040;-71
2023/08/02 16:08:28;;;;;;;6.95;1.77;;;;;;;-147.32;100.00;65238.50;10441725;28;20140;-72
2023/08/02 16:13:28;;;;;;;6.82;1.58;;;;;;;-147.32;100.00;65238.50;10425099;28;20081;-71
2023/08/02 16:18:29;;;;;;;3.40;0.80;;;;;;;-147.32;100.00;65238.50;10410180;28;25034;-72
2023/08/02 16:23:29;;;;;;;3.65;0.98;;;;;;;-147.32;100.00;65238.50;10425892;28;20041;-71
2023/08/02 16:28:30;;;;;;;8.77;1.42;;;;;;;-147.32;100.00;65238.50;10452272;28;20059;-70
2023/08/02 16:33:30;;;;;;;3.20;0.90;;;;;;;-147.32;100.00;65238.50;10415853;28;20057;-71
2023/08/02 16:38:31;;;;;;;6.90;1.35;;;;;;;-147.32;100.00;65238.50;10426559;28;20036;-71
2023/08/02 16:43:31;;;;;;;5.70;0.80;;;;;;;-147.32;100.00;65238.50;10438891;28;20040;-70
2023/08/02 16:48:32;;;;;;;8.38;0.90;;;;;;;-147.32;100.00;65238.50;10440064;28;20129;-69
2023/08/02 16:53:33;;;;;;;7.18;0.68;;;;;;;-147.32;100.00;65238.50;10422956;28;20033;-69
2023/08/02 16:58:33;;;;;;;4.13;0.70;;;;;;;-147.32;100.00;65238.50;10423735;28;20059;-67
2023/08/02 17:03:34;;;;;;;5.70;0.50;;;;;;;-147.32;100.00;65238.50;10420423;28;20045;-69
2023/08/02 17:08:34;;;;;;;4.57;1.02;;;;;;;-147.32;100.00;65238.50;10443281;28;20185;-70
2023/08/02 17:13:35;;;;;;;4.90;1.02;;;;;;;-147.32;100.00;65238.50;10451951;28;20041;-70
2023/08/02 17:18:35;;;;;;;3.95;0.70;;;;;;;-147.32;100.00;65238.50;10436659;28;20029;-69
2023/08/02 17:23:36;;;;;;;4.25;0.88;;;;;;;-147.32;100.00;65238.50;10442026;28;20404;-69
2023/08/02 17:28:37;;;;;;;9.88;1.70;;;;;;;-147.32;100.00;65238.50;10459400;28;20121;-69
2023/08/02 17:33:37;;;;;;;8.98;1.30;;;;;;;-147.32;100.00;65238.50;10461448;28;20033;-69
2023/08/02 17:38:38;;;;;;;8.23;1.63;;;;;;;-147.32;100.00;65238.50;10436124;28;20032;-69
2023/08/02 17:43:38;;;;;;;9.32;1.42;;;;;;;-147.32;100.00;65238.50;10429343;28;20044;-68
2023/08/02 17:48:39;;;;;;;10.18;1.33;;;;;;;-147.32;100.00;65238.50;10449023;28;20033;-69
2023/08/02 17:53:39;;;;;;;7.50;1.63;;;;;;;-147.32;100.00;65238.50;10430666;28;20052;-69
2023/08/02 17:58:40;;;;;;;6.43;1.00;;;;;;;-147.32;100.00;65238.50;10463052;28;20045;-69
2023/08/02 18:03:44;;;;;;;4.28;1.10;;;;;;;-147.32;100.00;65238.50;10447567;28;20048;-69
2023/08/02 18:08:46;;;;;;;8.02;2.92;;;;;;;-147.32;100.00;65238.50;10448045;28;20051;-70
2023/08/02 18:13:47;;;;;;;6.45;1.15;;;;;;;-147.32;100.00;65238.50;10411277;28;20500;-69
2023/08/02 18:18:47;;;;;;;7.38;2.05;;;;;;;-147.32;100.00;65238.50;10461714;28;20041;-69
2023/08/02 18:23:48;;;;;;;7.72;1.73;;;;;;;-147.32;100.00;65238.50;10443487;28;20037;-69
2023/08/02 18:28:49;;;;;;;5.53;1.25;;;;;;;-147.32;100.00;65238.50;10427947;28;20047;-69
2023/08/02 18:33:49;;;;;;;7.03;1.20;;;;;;;-147.32;100.00;65238.50;10433101;28;20037;-69
2023/08/02 18:38:50;;;;;;;9.05;2.25;;;;;;;-147.32;100.00;65238.50;10459534;28;20044;-70
2023/08/02 18:43:51;;;;;;;4.35;0.90;;;;;;;-147.32;100.00;65238.50;10443697;28;20041;-69
2023/08/02 18:48:52;;;;;;;6.78;1.95;;;;;;;-147.32;100.00;65238.50;10458465;28;20044;-69
2023/08/02 18:53:52;;;;;;;4.25;1.30;;;;;;;-147.32;100.00;65238.50;10446261;28;20075;-69
2023/08/02 18:58:54;;;;;;;6.88;1.20;;;;;;;-147.32;100.00;65238.50;10443254;28;20048;-72
2023/08/02 19:03:55;;;;;;;4.60;1.23;;;;;;;-147.32;100.00;65238.50;10445236;28;20048;-68
2023/08/02 19:08:56;;;;;;;5.25;1.10;;;;;;;-147.32;100.00;65238.50;10429613;28;20036;-69
2023/08/02 19:13:57;;;;;;;3.05;1.20;;;;;;;-147.32;100.00;65238.50;10424847;28;20078;-68
2023/08/02 19:18:59;;;;;;;6.80;1.08;;;;;;;-147.32;100.00;65238.50;10443320;28;20558;-69
2023/08/02 19:24:00;;;;;;;3.63;1.20;;;;;;;-147.32;100.00;65238.50;10439512;28;20040;-68
2023/08/02 19:29:01;;;;;;;11.02;2.03;;;;;;;-147.32;100.00;65238.50;10463603;28;20029;-69
2023/08/02 19:34:01;;;;;;;5.82;1.05;;;;;;;-147.32;100.00;65238.50;10477205;28;20437;-73
2023/08/02 19:39:07;;;;;;;3.15;1.10;;;;;;;-147.32;100.00;65238.50;10459963;28;20083;-70
2023/08/02 19:44:07;;;;;;;6.60;1.20;;;;;;;-147.32;100.00;65238.50;10427273;28;20458;-71
2023/08/02 19:49:08;;;;;;;12.63;1.90;;;;;;;-147.32;100.00;65238.50;10458527;28;20037;-69
2023/08/02 19:54:08;;;;;;;6.50;1.42;;;;;;;-147.32;100.00;65238.50;10437730;28;20104;-71
2023/08/02 19:59:10;;;;;;;7.80;2.63;;;;;;;-147.32;100.00;65238.50;10439457;28;21091;-69
2023/08/02 20:04:10;;;;;;;6.57;1.20;;;;;;;-147.32;100.00;65238.50;10413815;28;20114;-72
2023/08/02 20:09:11;;;;;;;5.47;1.00;;;;;;;-147.32;100.00;65238.50;10410820;28;20113;-69
2023/08/02 20:14:19;;;;;;;9.85;2.88;;;;;;;-147.32;100.00;65238.50;10452257;28;20079;-71
2023/08/02 20:19:22;;;;;;;6.10;1.00;;;;;;;-147.32;100.00;65238.50;10418375;28;20076;-69
2023/08/02 20:24:23;;;;;;;8.18;1.15;;;;;;;-147.32;100.00;65238.50;10418710;28;20436;-68
2023/08/02 20:29:24;;;;;;;9.18;2.13;;;;;;;-147.32;100.00;65238.50;10465706;28;20038;-69
2023/08/02 20:34:25;;;;;;;8.45;2.08;;;;;;;-147.32;100.00;65238.50;10413417;28;20645;-70
2023/08/02 20:39:28;;;;;;;7.40;1.00;;;;;;;-147.32;100.00;65238.50;10447833;28;20041;-69
2023/08/02 20:44:28;;;;;;;8.80;1.73;;;;;;;-147.32;100.00;65238.50;10425382;28;20045;-68
2023/08/02 20:49:29;;;;;;;13.63;1.85;;;;;;;-147.32;100.00;65238.50;10443508;28;20037;-69
2023/08/02 20:54:29;;;;;;;6.30;1.55;;;;;;;-147.32;100.00;65238.50;10454981;28;20047;-69
2023/08/02 20:59:30;;;;;;;6.85;1.88;;;;;;;-147.32;100.00;65238.50;10461985;28;20044;-69
2023/08/02 21:04:30;;;;;;;13.40;2.50;;;;;;;-147.32;100.00;65238.50;10442704;28;20055;-69
2023/08/02 21:09:31;;;;;;;8.93;2.50;;;;;;;-147.32;100.00;65238.50;10468479;28;20041;-69
2023/08/02 21:14:31;;;;;;;7.55;1.25;;;;;;;-147.32;100.00;65238.50;10450221;28;20481;-68
2023/08/02 21:19:34;;;;;;;10.07;2.85;;;;;;;-147.32;100.00;65238.50;10446217;28;20037;-69
2023/08/02 21:24:35;;;;;;;8.70;1.60;;;;;;;-147.32;100.00;65238.50;10446308;28;20045;-69
2023/08/02 21:29:35;;;;;;;4.50;1.08;;;;;;;-147.32;100.00;65238.50;10458554;28;20102;-69
2023/08/02 21:34:36;;;;;;;9.25;1.40;;;;;;;-147.32;100.00;65238.50;10423678;28;20105;-70
2023/08/02 21:39:38;;;;;;;7.78;1.92;;;;;;;-147.32;100.00;65238.50;10440315;28;21192;-69
2023/08/02 21:44:38;;;;;;;6.10;1.60;;;;;;;-147.32;100.00;65238.50;10454772;28;20040;-68
2023/08/02 21:49:39;;;;;;;9.80;2.55;;;;;;;-147.32;100.00;65238.50;10448965;28;20033;-71
2023/08/02 21:54:40;;;;;;;5.63;1.73;;;;;;;-147.32;100.00;65238.50;10483939;28;20049;-72
2023/08/02 21:59:40;;;;;;;8.23;1.58;;;;;;;-147.32;100.00;65238.50;10464375;28;20036;-72
2023/08/02 22:04:41;;;;;;;12.43;2.42;;;;;;;-147.32;100.00;65238.50;10420734;28;20040;-72
2023/08/02 22:09:43;;;;;;;7.68;1.83;;;;;;;-147.32;100.00;65238.50;10433887;28;20044;-73
2023/08/02 22:14:43;;;;;;;4.47;1.70;;;;;;;-147.32;100.00;65238.50;10453658;28;20087;-71
2023/08/02 22:19:44;;;;;;;6.22;1.90;;;;;;;-147.32;100.00;65238.50;10455069;28;20087;-71
2023/08/02 22:24:47;;;;;;;5.40;1.73;;;;;;;-147.32;100.00;65238.50;10433035;28;20041;-71
2023/08/02 22:29:49;;;;;;;4.65;1.83;;;;;;;-147.32;100.00;65238.50;10435679;28;20045;-71